createdAt,value
2017-11-13T00:00:28.325Z,137.33
2017-11-13T00:02:58.859Z,254.87
2017-11-13T00:05:27.726Z,205.50
2017-11-13T00:08:00.057Z,283.93
2017-11-13T00:10:29.080Z,251.87
2017-11-13T00:12:58.008Z,523.87
2017-11-13T00:15:27.666Z,375.00
2017-11-13T00:17:56.935Z,346.63
2017-11-13T00:20:25.855Z,303.03
2017-11-13T00:22:54.761Z,82.07
2017-11-13T00:25:23.706Z,156.87
2017-11-13T00:27:52.571Z,63.77
2017-11-13T00:30:22.433Z,84.13
2017-11-13T00:32:52.592Z,71.53
2017-11-13T00:35:21.535Z,136.93
2017-11-13T00:37:50.402Z,107.50
2017-11-13T00:40:19.370Z,111.87
2017-11-13T00:42:48.725Z,140.73
2017-11-13T00:45:17.771Z,116.70
2017-11-13T00:47:47.831Z,48.37
2017-11-13T00:50:17.089Z,52.33
2017-11-13T00:52:46.700Z,59.93
2017-11-13T00:55:15.870Z,32.23
2017-11-13T00:57:45.156Z,46.03
2017-11-13T01:00:14.877Z,41.50
2017-11-13T01:02:44.505Z,47.47
2017-11-13T01:05:13.419Z,45.40
2017-11-13T01:07:42.289Z,59.63
2017-11-13T01:10:11.487Z,48.20
2017-11-13T01:12:40.416Z,40.57
2017-11-13T01:15:09.990Z,82.93
2017-11-13T01:17:38.908Z,64.67
2017-11-13T01:20:07.745Z,47.57
2017-11-13T01:22:37.302Z,43.57
2017-11-13T01:25:06.132Z,41.07
2017-11-13T01:27:35.172Z,56.17
2017-11-13T01:30:04.464Z,74.23
2017-11-13T01:32:33.613Z,100.93
2017-11-13T01:35:02.727Z,121.27
2017-11-13T01:37:31.967Z,73.50
2017-11-13T01:40:01.052Z,248.77
2017-11-13T01:42:30.017Z,434.07
2017-11-13T01:44:59.181Z,317.63
2017-11-13T01:47:28.304Z,226.57
2017-11-13T01:49:57.147Z,247.63
2017-11-13T01:52:26.040Z,235.50
2017-11-13T01:54:54.824Z,177.70
2017-11-13T01:57:24.528Z,177.80
2017-11-13T01:59:53.632Z,72.23
2017-11-13T02:02:22.567Z,89.33
2017-11-13T02:04:51.431Z,86.30
2017-11-13T02:07:21.176Z,65.27
2017-11-13T02:09:50.191Z,94.80
2017-11-13T02:12:19.073Z,124.23
2017-11-13T02:14:48.694Z,233.33
2017-11-13T02:17:17.631Z,112.60
2017-11-13T02:19:47.615Z,222.23
2017-11-13T02:22:17.122Z,235.80
2017-11-13T02:24:47.112Z,181.50
2017-11-13T02:27:16.071Z,184.60
2017-11-13T02:29:45.383Z,195.33
2017-11-13T02:32:14.420Z,50.37
2017-11-13T02:34:43.462Z,38.23
2017-11-13T02:37:12.861Z,61.83
2017-11-13T02:39:41.888Z,66.37
2017-11-13T02:42:11.426Z,58.63
2017-11-13T02:44:41.431Z,109.07
2017-11-13T02:47:10.541Z,107.70
2017-11-13T02:49:39.492Z,186.43
2017-11-13T02:52:08.933Z,176.43
2017-11-13T02:54:37.984Z,75.67
2017-11-13T02:57:07.096Z,72.73
2017-11-13T02:59:36.126Z,81.67
2017-11-13T03:02:05.072Z,70.97
2017-11-13T03:04:34.215Z,87.23
2017-11-13T03:07:03.246Z,77.23
2017-11-13T03:09:32.428Z,99.43
2017-11-13T03:12:01.366Z,69.53
2017-11-13T03:14:30.966Z,50.40
2017-11-13T03:16:59.791Z,51.80
2017-11-13T03:19:29.383Z,107.43
2017-11-13T03:21:59.113Z,55.90
2017-11-13T03:24:28.005Z,58.20
2017-11-13T03:26:57.035Z,75.60
2017-11-13T03:29:25.841Z,52.33
2017-11-13T03:31:55.598Z,78.53
2017-11-13T03:34:25.712Z,54.07
2017-11-13T03:36:55.366Z,43.57
2017-11-13T03:39:24.253Z,37.70
2017-11-13T03:41:53.073Z,35.67
2017-11-13T03:44:21.901Z,45.30
2017-11-13T03:46:50.721Z,44.37
2017-11-13T03:49:19.578Z,41.70
2017-11-13T03:51:48.556Z,41.10
2017-11-13T03:54:17.751Z,41.80
2017-11-13T03:56:46.580Z,60.67
2017-11-13T03:59:15.691Z,101.00
2017-11-13T04:01:45.653Z,85.70
2017-11-13T04:04:14.487Z,58.87
2017-11-13T04:06:43.340Z,51.57
2017-11-13T04:09:12.291Z,50.83
2017-11-13T04:11:41.341Z,48.40
2017-11-13T04:14:12.527Z,81.23
2017-11-13T04:16:41.456Z,42.10
2017-11-13T04:19:10.644Z,48.53
2017-11-13T04:21:39.632Z,64.80
2017-11-13T04:24:09.222Z,72.50
2017-11-13T04:26:38.135Z,69.37
2017-11-13T04:29:07.292Z,64.50
2017-11-13T04:31:36.118Z,71.43
2017-11-13T04:34:05.062Z,168.87
2017-11-13T04:36:34.653Z,299.40
2017-11-13T04:39:05.220Z,104.80
2017-11-13T04:41:34.572Z,66.93
2017-11-13T04:44:03.579Z,47.30
2017-11-13T04:46:33.433Z,58.50
2017-11-13T04:49:02.624Z,48.93
2017-11-13T04:51:31.559Z,46.33
2017-11-13T04:54:00.367Z,40.83
2017-11-13T04:56:30.352Z,111.73
2017-11-13T04:58:59.188Z,59.87
2017-11-13T05:01:29.008Z,47.50
2017-11-13T05:03:58.108Z,40.87
2017-11-13T05:06:27.331Z,39.20
2017-11-13T05:08:56.909Z,81.57
2017-11-13T05:11:26.376Z,97.27
2017-11-13T05:13:55.328Z,209.00
2017-11-13T05:16:24.684Z,317.77
2017-11-13T05:18:55.264Z,302.30
2017-11-13T05:21:25.380Z,495.17
2017-11-13T05:23:55.751Z,511.57
2017-11-13T05:26:24.781Z,497.27
2017-11-13T05:28:53.692Z,446.83
2017-11-13T05:31:22.560Z,439.13
2017-11-13T05:33:51.672Z,463.40
2017-11-13T05:36:20.460Z,523.70
2017-11-13T05:38:49.297Z,620.90
2017-11-13T05:41:18.708Z,463.20
2017-11-13T05:43:47.589Z,764.10
2017-11-13T05:46:17.479Z,781.83
2017-11-13T05:48:47.568Z,596.43
2017-11-13T05:51:16.591Z,668.40
2017-11-13T05:53:45.404Z,666.03
2017-11-13T05:56:14.956Z,537.17
2017-11-13T05:58:44.058Z,596.87
2017-11-13T06:01:12.948Z,716.40
2017-11-13T06:03:42.119Z,527.37
2017-11-13T06:06:11.782Z,572.53
2017-11-13T06:08:41.380Z,590.87
2017-11-13T06:11:10.588Z,784.17
2017-11-13T06:13:40.123Z,557.80
2017-11-13T06:16:08.935Z,469.27
2017-11-13T06:18:38.740Z,637.77
2017-11-13T06:21:07.668Z,599.73
2017-11-13T06:23:36.543Z,464.00
2017-11-13T06:26:05.379Z,493.80
2017-11-13T06:28:34.542Z,492.83
2017-11-13T06:31:03.541Z,340.53
2017-11-13T06:33:33.524Z,304.13
2017-11-13T06:36:03.389Z,344.47
2017-11-13T06:38:32.826Z,482.60
2017-11-13T06:41:01.769Z,530.90
2017-11-13T06:43:31.410Z,647.17
2017-11-13T06:46:00.239Z,623.93
2017-11-13T06:48:29.830Z,595.00
2017-11-13T06:50:59.390Z,500.43
2017-11-13T06:53:28.251Z,164.77
2017-11-13T06:55:57.908Z,50.33
2017-11-13T06:58:26.765Z,29.43
2017-11-13T07:00:55.651Z,33.60
2017-11-13T07:03:25.568Z,22.83
2017-11-13T07:05:54.523Z,23.60
2017-11-13T07:08:23.688Z,24.20
2017-11-13T07:10:52.833Z,28.43
2017-11-13T07:13:22.482Z,22.90
2017-11-13T07:15:51.577Z,29.23
2017-11-13T07:18:20.432Z,28.57
2017-11-13T07:20:50.056Z,23.27
2017-11-13T07:23:18.851Z,21.63
2017-11-13T07:25:47.936Z,24.77
2017-11-13T07:28:16.768Z,22.13
2017-11-13T07:30:45.697Z,22.97
2017-11-13T07:33:15.632Z,25.17
2017-11-13T07:35:44.523Z,27.70
2017-11-13T07:38:14.625Z,23.37
2017-11-13T07:40:44.351Z,26.30
2017-11-13T07:43:14.368Z,26.93
2017-11-13T07:45:43.261Z,28.07
2017-11-13T07:48:13.159Z,26.87
2017-11-13T07:50:43.088Z,19.17
2017-11-13T07:53:11.975Z,24.10
2017-11-13T07:55:40.841Z,26.90
2017-11-13T07:58:09.764Z,27.97
2017-11-13T08:00:38.596Z,30.30
2017-11-13T08:03:07.441Z,58.10
2017-11-13T08:05:36.864Z,32.57
2017-11-13T08:08:05.762Z,33.40
2017-11-13T08:10:34.592Z,33.00
2017-11-13T08:13:05.817Z,31.63
2017-11-13T08:15:35.580Z,25.23
2017-11-13T08:18:05.290Z,29.00
2017-11-13T08:20:34.148Z,34.17
2017-11-13T08:23:03.399Z,36.40
2017-11-13T08:25:32.631Z,41.93
2017-11-13T08:28:01.802Z,27.23
2017-11-13T08:30:30.856Z,19.20
2017-11-13T08:32:59.836Z,35.77
2017-11-13T08:35:28.776Z,19.70
2017-11-13T08:37:57.602Z,21.17
2017-11-13T08:40:27.196Z,31.10
2017-11-13T08:42:56.805Z,40.20
2017-11-13T08:45:25.676Z,38.70
2017-11-13T08:47:56.117Z,37.37
2017-11-13T08:50:25.704Z,35.87
2017-11-13T08:52:55.413Z,30.87
2017-11-13T08:55:26.177Z,19.53
2017-11-13T08:57:55.000Z,19.13
2017-11-13T09:00:23.817Z,21.27
2017-11-13T09:02:53.465Z,18.53
2017-11-13T09:05:22.629Z,18.20
2017-11-13T09:07:52.812Z,16.80
2017-11-13T09:10:22.541Z,20.00
2017-11-13T09:12:54.622Z,18.47
2017-11-13T09:15:24.240Z,18.33
2017-11-13T09:17:53.826Z,18.87
2017-11-13T09:20:22.771Z,20.80
2017-11-13T09:22:52.739Z,18.73
2017-11-13T09:25:22.312Z,17.33
2017-11-13T09:27:51.180Z,18.40
2017-11-13T09:30:20.023Z,18.50
2017-11-13T09:32:50.056Z,21.50
2017-11-13T09:35:18.867Z,17.10
2017-11-13T09:37:48.022Z,22.23
2017-11-13T09:40:18.012Z,23.07
2017-11-13T09:42:47.628Z,26.30
2017-11-13T09:45:16.799Z,21.43
2017-11-13T09:47:46.053Z,20.73
2017-11-13T09:50:14.949Z,23.10
2017-11-13T09:52:44.447Z,34.70
2017-11-13T09:55:13.488Z,29.40
2017-11-13T09:57:43.135Z,26.73
2017-11-13T10:00:13.810Z,22.63
2017-11-13T10:02:43.290Z,37.77
2017-11-13T10:05:12.187Z,37.20
2017-11-13T10:07:41.835Z,37.27
2017-11-13T10:10:11.099Z,22.93
2017-11-13T10:12:40.116Z,24.37
2017-11-13T10:15:09.784Z,21.47
2017-11-13T10:17:39.126Z,27.60
2017-11-13T10:20:08.796Z,22.30
2017-11-13T10:22:38.775Z,25.77
2017-11-13T10:25:09.004Z,20.03
2017-11-13T10:27:38.711Z,20.50
2017-11-13T10:30:08.536Z,22.93
2017-11-13T10:32:37.785Z,16.60
2017-11-13T10:35:07.063Z,24.27
2017-11-13T10:37:35.914Z,17.23
2017-11-13T10:40:05.551Z,24.03
2017-11-13T10:42:34.436Z,18.90
2017-11-13T10:45:03.460Z,21.07
2017-11-13T10:47:32.812Z,21.00
2017-11-13T10:50:01.880Z,17.97
2017-11-13T10:52:31.488Z,15.37
2017-11-13T10:55:01.475Z,18.87
2017-11-13T10:57:31.342Z,19.17
2017-11-13T11:00:00.701Z,19.20
2017-11-13T11:02:29.817Z,16.80
2017-11-13T11:05:00.076Z,18.97
2017-11-13T11:07:29.077Z,21.23
2017-11-13T11:09:58.095Z,16.57
2017-11-13T11:12:27.468Z,18.70
2017-11-13T11:14:56.561Z,23.17
2017-11-13T11:17:25.612Z,18.20
2017-11-13T11:19:54.601Z,17.60
2017-11-13T11:22:24.302Z,21.40
2017-11-13T11:24:54.011Z,17.17
2017-11-13T11:27:22.984Z,17.67
2017-11-13T11:29:51.965Z,16.30
2017-11-13T11:32:20.936Z,19.13
2017-11-13T11:34:50.045Z,16.23
2017-11-13T11:37:19.801Z,17.30
2017-11-13T11:39:51.132Z,16.10
2017-11-13T11:42:20.090Z,15.47
2017-11-13T11:44:49.385Z,16.03
2017-11-13T11:47:18.633Z,19.53
2017-11-13T11:49:48.909Z,19.67
2017-11-13T11:52:18.015Z,16.73
2017-11-13T11:54:47.117Z,16.40
2017-11-13T11:57:16.191Z,17.50
2017-11-13T11:59:45.219Z,20.43
2017-11-13T12:02:14.481Z,17.07
2017-11-13T12:04:43.581Z,17.00
2017-11-13T12:07:12.656Z,15.80
2017-11-13T12:09:41.703Z,15.07
2017-11-13T12:12:11.324Z,16.17
2017-11-13T12:14:40.211Z,20.30
2017-11-13T12:17:09.097Z,16.50
2017-11-13T12:19:38.750Z,15.83
2017-11-13T12:22:08.479Z,17.90
2017-11-13T12:24:38.162Z,16.63
2017-11-13T12:27:07.849Z,17.70
2017-11-13T12:29:37.800Z,16.30
2017-11-13T12:32:06.674Z,15.17
2017-11-13T12:34:35.582Z,16.00
2017-11-13T12:37:05.598Z,15.40
2017-11-13T12:39:34.607Z,17.37
2017-11-13T12:42:03.484Z,14.37
2017-11-13T12:44:32.780Z,17.20
2017-11-13T12:47:01.761Z,14.43
2017-11-13T12:49:30.596Z,16.53
2017-11-13T12:52:01.619Z,18.60
2017-11-13T12:54:31.594Z,16.80
2017-11-13T12:57:01.210Z,16.43
2017-11-13T12:59:31.486Z,18.30
2017-11-13T13:02:00.606Z,18.03
2017-11-13T13:04:30.414Z,17.57
2017-11-13T13:06:59.306Z,17.20
2017-11-13T13:09:28.639Z,18.60
2017-11-13T13:11:57.553Z,16.77
2017-11-13T13:14:27.272Z,17.93
2017-11-13T13:16:56.163Z,16.40
2017-11-13T13:19:25.088Z,17.90
2017-11-13T13:21:53.899Z,14.73
2017-11-13T13:24:23.052Z,15.43
2017-11-13T13:26:51.966Z,14.30
2017-11-13T13:29:20.824Z,17.40
2017-11-13T13:31:50.625Z,15.33
2017-11-13T13:34:20.308Z,17.30
2017-11-13T13:36:49.281Z,15.93
2017-11-13T13:39:18.620Z,16.13
2017-11-13T13:41:48.208Z,14.47
2017-11-13T13:44:17.431Z,16.50
2017-11-13T13:46:46.604Z,16.27
2017-11-13T13:49:16.189Z,16.40
2017-11-13T13:51:45.101Z,19.80
2017-11-13T13:54:14.962Z,15.00
2017-11-13T13:56:43.944Z,15.50
2017-11-13T13:59:12.813Z,16.97
2017-11-13T14:01:41.843Z,16.80
2017-11-13T14:04:10.715Z,16.57
2017-11-13T14:06:39.566Z,15.90
2017-11-13T14:09:09.717Z,17.20
2017-11-13T14:11:38.686Z,16.13
2017-11-13T14:14:08.691Z,16.17
2017-11-13T14:16:38.297Z,16.30
2017-11-13T14:19:07.899Z,15.60
2017-11-13T14:21:38.046Z,17.33
2017-11-13T14:24:06.896Z,16.83
2017-11-13T14:26:35.826Z,17.77
2017-11-13T14:29:10.589Z,19.17
2017-11-13T14:31:39.691Z,14.47
2017-11-13T14:34:08.747Z,17.40
2017-11-13T14:36:37.955Z,14.40
2017-11-13T14:39:06.956Z,16.17
2017-11-13T14:41:35.809Z,17.90
2017-11-13T14:44:15.361Z,14.30
2017-11-13T14:46:44.247Z,15.20
2017-11-13T14:49:13.430Z,15.53
2017-11-13T14:51:42.409Z,19.00
2017-11-13T14:54:12.019Z,19.50
2017-11-13T14:56:41.644Z,15.50
2017-11-13T14:59:10.536Z,18.27
2017-11-13T15:01:40.152Z,17.33
2017-11-13T15:04:09.704Z,17.00
2017-11-13T15:06:41.103Z,14.63
2017-11-13T15:09:09.953Z,14.60
2017-11-13T15:11:39.552Z,27.37
2017-11-13T15:14:09.759Z,16.83
2017-11-13T15:16:38.607Z,13.70
2017-11-13T15:19:08.671Z,19.40
2017-11-13T15:24:10.631Z,19.97
2017-11-13T15:26:39.936Z,15.90
2017-11-13T15:29:08.796Z,18.53
2017-11-13T15:31:37.658Z,20.20
2017-11-13T15:34:06.896Z,26.90
2017-11-13T15:36:36.416Z,33.53
2017-11-13T15:39:08.865Z,34.97
2017-11-13T15:41:37.719Z,34.83
2017-11-13T15:44:06.583Z,32.40
2017-11-13T15:46:45.940Z,31.03
2017-11-13T15:49:14.854Z,29.93
2017-11-13T15:51:43.788Z,31.80
2017-11-13T15:54:12.942Z,35.10
2017-11-13T15:56:41.784Z,273.30
2017-11-13T15:59:10.608Z,121.17
2017-11-13T16:01:39.844Z,76.43
2017-11-13T16:04:09.011Z,80.03
2017-11-13T16:06:37.864Z,47.80
2017-11-13T16:09:07.513Z,33.43
2017-11-13T16:11:37.053Z,45.10
2017-11-13T16:14:07.280Z,49.57
2017-11-13T16:16:36.278Z,62.33
2017-11-13T16:19:06.284Z,54.33
2017-11-13T16:21:35.168Z,70.17
2017-11-13T16:24:04.155Z,50.17
2017-11-13T16:26:33.822Z,50.37
2017-11-13T16:29:02.873Z,49.77
2017-11-13T16:31:32.833Z,63.07
2017-11-13T16:34:04.561Z,41.45
2017-11-13T16:36:37.980Z,42.40
2017-11-13T16:39:34.163Z,49.77
2017-11-13T16:56:25.805Z,49.10
2017-11-13T16:58:56.037Z,49.45
2017-11-13T17:01:25.752Z,48.67
2017-11-13T17:04:20.015Z,50.92
2017-11-13T17:06:49.340Z,59.58
2017-11-13T17:09:18.753Z,75.80
2017-11-13T17:11:48.302Z,113.07
2017-11-13T17:17:53.714Z,59.72
2017-11-13T17:20:23.349Z,58.90
2017-11-13T17:22:52.584Z,57.38
2017-11-13T17:25:32.248Z,53.77
2017-11-13T17:28:02.125Z,44.00
2017-11-13T17:30:31.373Z,43.95
2017-11-13T17:33:00.689Z,37.30
2017-11-13T17:35:44.997Z,36.45
2017-11-13T17:38:14.323Z,36.85
2017-11-13T17:40:43.822Z,39.50
2017-11-13T17:43:13.505Z,44.07
2017-11-13T17:49:18.886Z,46.63
2017-11-13T17:51:48.413Z,53.90
2017-11-13T17:54:17.727Z,46.97
2017-11-13T17:56:47.116Z,44.30
2017-11-13T17:59:16.438Z,32.17
2017-11-13T18:01:45.978Z,41.33
2017-11-13T18:04:15.326Z,30.17
2017-11-13T18:06:44.940Z,27.43
2017-11-13T18:09:14.440Z,35.43
2017-11-13T18:11:44.949Z,27.73
2017-11-13T18:15:10.798Z,35.73
2017-11-13T18:17:41.810Z,35.23
2017-11-13T18:20:12.209Z,42.77
2017-11-13T18:23:23.343Z,29.40
2017-11-13T18:25:54.072Z,37.03
2017-11-13T18:28:23.969Z,28.60
2017-11-13T18:30:53.837Z,22.17
2017-11-13T18:33:23.253Z,24.20
2017-11-13T18:35:53.605Z,18.53
2017-11-13T18:38:28.568Z,27.37
2017-11-13T18:41:02.032Z,25.13
2017-11-13T18:43:42.381Z,20.20
2017-11-13T18:46:43.698Z,22.17
2017-11-13T18:49:19.703Z,24.33
2017-11-13T18:51:55.158Z,24.17
2017-11-13T18:54:28.593Z,18.60
2017-11-13T18:57:01.888Z,18.87
2017-11-13T19:04:41.288Z,18.30
2017-11-13T19:07:14.087Z,41.03
2017-11-13T19:09:43.486Z,36.13
2017-11-13T19:12:12.957Z,36.47
2017-11-13T19:14:44.353Z,32.50
2017-11-13T19:17:14.662Z,28.30
2017-11-13T19:19:43.892Z,27.57
2017-11-13T19:22:13.004Z,28.27
2017-11-13T19:24:42.028Z,30.43
2017-11-13T19:27:12.467Z,27.73
2017-11-13T19:29:41.512Z,24.43
2017-11-13T19:32:10.519Z,37.63
2017-11-13T19:34:40.279Z,35.63
2017-11-13T19:37:09.276Z,36.97
2017-11-13T19:39:39.051Z,30.53
2017-11-13T19:42:07.968Z,34.30
2017-11-13T19:44:40.628Z,28.73
2017-11-13T19:47:09.585Z,31.40
2017-11-13T19:49:41.333Z,30.43
2017-11-13T19:52:13.428Z,43.07
2017-11-13T19:54:44.712Z,41.73
2017-11-13T19:57:14.363Z,61.27
2017-11-13T19:59:43.962Z,55.50
2017-11-13T20:02:13.235Z,42.53
2017-11-13T20:04:42.433Z,48.47
2017-11-13T20:07:11.316Z,45.07
2017-11-13T20:09:40.884Z,75.00
2017-11-13T20:12:09.712Z,72.97
2017-11-13T20:14:38.573Z,55.43
2017-11-13T20:17:07.408Z,59.47
2017-11-13T20:19:36.248Z,82.20
2017-11-13T20:22:06.534Z,66.67
2017-11-13T20:24:35.362Z,52.30
2017-11-13T20:27:05.391Z,49.37
2017-11-13T20:29:37.512Z,47.17
2017-11-13T20:32:08.412Z,52.23
2017-11-13T20:34:37.341Z,43.33
2017-11-13T20:37:06.224Z,45.57
2017-11-13T20:39:35.801Z,33.50
2017-11-13T20:42:04.691Z,39.70
2017-11-13T20:44:33.540Z,63.70
2017-11-13T20:47:02.451Z,51.80
2017-11-13T20:49:31.819Z,73.40
2017-11-13T20:52:01.417Z,81.63
2017-11-13T20:54:30.643Z,47.23
2017-11-13T20:57:00.352Z,54.80
2017-11-13T20:59:29.243Z,49.37
2017-11-13T21:02:02.199Z,59.33
2017-11-13T21:04:31.374Z,63.83
2017-11-13T21:07:00.236Z,56.20
2017-11-13T21:09:29.226Z,72.43
2017-11-13T21:11:58.103Z,65.20
2017-11-13T21:14:27.696Z,65.03
2017-11-13T21:16:57.291Z,60.37
2017-11-13T21:19:26.181Z,63.00
2017-11-13T21:21:57.424Z,96.20
2017-11-13T21:24:27.243Z,90.40
2017-11-13T21:26:56.829Z,79.80
2017-11-13T21:29:26.045Z,119.87
2017-11-13T21:31:55.617Z,92.13
2017-11-13T21:34:24.456Z,118.13
2017-11-13T21:36:56.324Z,124.73
2017-11-13T21:39:25.155Z,85.87
2017-11-13T21:41:53.976Z,164.03
2017-11-13T21:44:24.527Z,142.57
2017-11-13T21:46:53.715Z,126.60
2017-11-13T21:49:22.596Z,191.70
2017-11-13T21:51:52.232Z,114.33
2017-11-13T21:54:21.079Z,207.33
2017-11-13T21:56:53.150Z,195.63
2017-11-13T21:59:22.704Z,300.17
2017-11-13T22:01:51.569Z,264.17
2017-11-13T22:04:20.364Z,243.30
2017-11-13T22:06:50.568Z,209.33
2017-11-13T22:09:19.376Z,233.03
2017-11-13T22:11:48.227Z,268.03
2017-11-13T22:14:17.811Z,192.03
2017-11-13T22:16:46.643Z,300.93
2017-11-13T22:19:19.084Z,240.87
2017-11-13T22:21:48.300Z,224.50
2017-11-13T22:24:17.128Z,320.87
2017-11-13T22:26:48.994Z,419.07
2017-11-13T22:29:17.848Z,499.23
2017-11-13T22:31:46.680Z,556.37
2017-11-13T22:34:15.559Z,564.73
2017-11-13T22:36:44.367Z,524.43
2017-11-13T22:39:14.120Z,646.47
2017-11-13T22:41:43.263Z,619.17
2017-11-13T22:44:12.149Z,565.13
2017-11-13T22:46:41.015Z,573.50
2017-11-13T22:49:09.867Z,549.27
2017-11-13T22:51:38.820Z,571.53
2017-11-13T22:54:08.079Z,559.97
2017-11-13T22:56:37.071Z,575.47
2017-11-13T22:59:05.928Z,511.70
2017-11-13T23:01:35.511Z,575.20
2017-11-13T23:04:04.391Z,577.73
2017-11-13T23:06:33.330Z,523.47
2017-11-13T23:09:02.344Z,556.70
2017-11-13T23:11:32.555Z,695.70
2017-11-13T23:14:01.527Z,649.53
2017-11-13T23:16:30.340Z,724.23
2017-11-13T23:19:01.447Z,679.43
2017-11-13T23:21:30.267Z,671.43
2017-11-13T23:23:59.109Z,701.77
2017-11-13T23:26:28.893Z,294.60
2017-11-13T23:28:57.700Z,433.10
2017-11-13T23:31:26.520Z,395.00
2017-11-13T23:33:55.396Z,439.97
2017-11-13T23:36:25.497Z,383.20
2017-11-13T23:38:55.148Z,409.80
2017-11-13T23:41:23.981Z,530.73
2017-11-13T23:43:53.216Z,388.27
2017-11-13T23:46:22.276Z,298.53
2017-11-13T23:48:51.116Z,261.90
2017-11-13T23:51:20.232Z,237.93
2017-11-13T23:53:49.036Z,220.33
2017-11-13T23:56:17.974Z,210.73
2017-11-13T23:58:46.970Z,203.97
